新東京国際空港の過去48時間の天気

新東京国際空港 (Tokyo/New Tokyo Intl)

現在時刻: 4/25 23:44 JST (4/25 14:44 UTC) 以下の時間は現地時間です。

過去48時間のMETAR気象情報
時間 風向 風速(m/s) 視程 気温(℃) 湿度(%) 気圧(hPa) 天気現象
25 23:30 東北東 4 7,000m 15 94 1001 弱いしゅう雨
25 23:00 東北東 4 7,000m 15 94 1001 弱いしゅう雨
25 22:30 東北東 4 7,000m 15 94 1001
25 22:00 東北東 5 5,000m 16 94 1001 もや
25 21:30 東北東 4 5,000m 16 94 1001 もや
25 21:00 東北東 4 5,000m 16 94 1001 もや
25 20:30 東北東 4 7,000m 16 94 1001 もや
25 20:17 東北東 4 7,000m 16 94 1001
25 20:00 北東 3 7,000m 17 94 1001
25 19:30 東北東 2 8,000m 17 94 1000
25 19:16 東北東 3 8,000m 17 94 1000
25 19:00 北東 4 10km以上 18 94 1000
25 18:30 北北西 1 10km以上 20 88 999
25 18:00 不定 1 10km以上 20 88 999
25 17:30 西 2 10km以上 21 83 998
25 17:00 西南西 3 10km以上 21 88 998
25 16:30 西南西 3 10km以上 21 88 998
25 16:00 西南西 2 10km以上 21 88 997
25 15:30 西南西 3 10km以上 20 94 997
25 15:00 西南西 4 10km以上 20 88 997
25 14:30 西南西 4 9,000m 19 100 997
25 14:00 西南西 4 7,000m 19 100 997 弱いしゅう雨
25 13:30 西南西 5 4,000m 19 100 997 弱いしゅう雨 もや
25 13:00 南西 6 3,500m 21 94 997 しゅう雨 もや
25 12:30 南南西 6 2,800m 20 100 997 弱いしゅう雨 もや
25 12:00 南南西 7 2,400m 20 94 997 弱いしゅう雨 もや
25 11:30 5 1,800m 19 100 998 しゅう雨 もや
25 11:05 6 2,000m 19 100 999 強いしゅう雨 もや
25 11:00 6 2,400m 19 100 999 強いしゅう雨 もや
25 10:43 6 4,000m 19 100 1000 しゅう雨 もや
25 10:30 7 3,000m 19 100 1000 しゅう雨 もや
25 10:16 南南東 8 2,400m 19 100 1000 しゅう雨 もや
25 10:00 7 2,000m 19 94 1001 強いしゅう雨 もや
25 09:30 南南東 5 3,500m 19 94 1002 しゅう雨 もや
25 09:00 南南東 5 4,000m 19 94 1003 しゅう雨 もや
25 08:30 6 4,500m 19 94 1003 しゅう雨 もや
25 08:00 5 4,500m 19 94 1004 しゅう雨 もや
25 07:41 5 4,500m 18 100 1004 しゅう雨 もや
25 07:30 5 5,000m 18 100 1004 弱いしゅう雨 もや
25 07:15 4 6,000m 18 100 1004 弱いしゅう雨
25 07:00 4 6,000m 18 100 1004 しゅう雨
25 06:30 5 6,000m 18 100 1004 しゅう雨
25 06:25 5 7,000m 18 100 1004 しゅう雨
25 06:00 5 8,000m 18 100 1004 弱いしゅう雨
25 05:38 5 7,000m 18 94 1005 弱いしゅう雨
25 05:30 5 6,000m 18 94 1005 しゅう雨
25 05:24 6 5,000m 18 94 1005 しゅう雨 もや
25 05:14 6 5,000m 18 94 1005 弱いしゅう雨 もや
25 05:03 5 4,500m 18 94 1004 しゅう雨 もや
25 05:00 5 6,000m 19 88 1004 弱いしゅう雨
25 04:30 6 10km以上 19 88 1004
25 04:00 5 10km以上 18 94 1005 弱い雨
25 03:30 4 10km以上 18 94 1005 弱い雨
25 03:00 5 10km以上 18 94 1005 弱い雨
25 02:30 4 10km以上 18 94 1006 弱い雨
25 02:00 5 10km以上 18 94 1006
25 01:30 4 10km以上 18 94 1006 弱い雨
25 01:00 4 10km以上 18 94 1007 弱い雨
25 00:30 4 8,000m 18 94 1008 弱い雨
25 00:00 3 8,000m 18 94 1008 弱い雨
24 23:30 4 8,000m 18 94 1009 弱い雨
24 23:00 南南東 3 10km以上 17 100 1009 弱い雨
24 22:30 南南東 3 10km以上 17 100 1009 弱い雨
24 22:00 2 10km以上 17 100 1010 弱いしゅう雨
24 21:30 南西 2 7,000m 17 100 1010 弱いしゅう雨
24 21:19 2 7,000m 17 100 1011 弱いしゅう雨
24 21:00 西南西 3 7,000m 17 100 1011 しゅう雨
24 20:45 南南東 1 6,000m 17 94 1011 しゅう雨
24 20:30 南南東 2 8,000m 17 94 1011 弱いしゅう雨
24 20:00 3 9,000m 17 94 1011 弱いしゅう雨
24 19:30 3 10km以上 18 88 1011 弱いしゅう雨
24 19:00 3 10km以上 18 88 1010 弱いしゅう雨
24 18:30 南南東 3 10km以上 17 94 1010 弱いしゅう雨
24 18:00 2 10km以上 18 88 1010 弱いしゅう雨
24 17:30 2 10km以上 18 88 1010 弱いしゅう雨
24 17:00 3 10km以上 19 78 1010 弱いしゅう雨
24 16:30 4 10km以上 19 78 1010 弱いしゅう雨
24 16:00 南南西 5 10km以上 20 68 1011 弱いしゅう雨
24 15:30 南西 6 10km以上 21 64 1011 弱いしゅう雨
24 15:00 南南西 6 10km以上 21 60 1011 弱いしゅう雨
24 14:30 南南西 5 10km以上 22 60 1011
24 14:00 南南西 5 10km以上 22 60 1012
24 13:30 南南西 5 10km以上 22 60 1012
24 13:00 南南西 4 10km以上 22 65 1013
24 12:30 5 10km以上 21 69 1013
24 12:00 4 10km以上 21 73 1013
24 11:30 5 10km以上 21 78 1014
24 11:00 南南東 6 10km以上 20 78 1014
24 10:30 南南東 5 10km以上 21 69 1015
24 10:00 南南東 5 10km以上 21 73 1015
24 09:30 南南西 6 10km以上 21 69 1016
24 09:00 4 10km以上 19 78 1016
24 08:30 南東 4 8,000m 19 83 1017
24 08:00 南南東 3 8,000m 17 88 1017
24 07:30 南東 2 6,000m 16 94 1017 もや
24 07:00 東南東 3 4,500m 16 88 1017 もや
24 06:30 東南東 2 5,000m 15 94 1017 もや
24 06:00 東北東 2 5,000m 14 94 1017 もや
24 05:30 3 5,000m 14 94 1017 もや
24 05:00 3 5,000m 14 94 1018 もや
24 04:30 東北東 2 6,000m 14 94 1018 弱い雨
24 04:00 北東 3 5,000m 14 94 1018 もや
24 03:30 東南東 2 5,000m 14 94 1018 もや
24 03:00 2 5,000m 14 94 1018 もや
24 02:30 東北東 2 5,000m 14 94 1018 もや
24 02:00 東北東 2 5,000m 14 94 1019 もや
24 01:30 2 5,000m 14 94 1019 もや
24 01:00 2 6,000m 14 94 1019
24 00:30 北東 3 6,000m 14 94 1019
24 00:00 北東 3 6,000m 14 94 1020
RJAA 251430Z 06007KT 020V080 7000 -SHRA FEW003 BKN006 15/14 Q1001 BECMG 04007KT TEMPO 4000 -SHRA BR FEW003 BKN005
RJAA 251400Z 07008KT 7000 -SHRA FEW005 BKN007 15/14 Q1001 BECMG 04007KT TEMPO 4000 -SHRA BR FEW003 BKN005 RMK 2ST005 7ST007 A2958
RJAA 251330Z 06008KT 360V080 7000 FEW004 BKN007 15/14 Q1001 BECMG 04007KT TEMPO 4000 -SHRA BR FEW003 BKN005
RJAA 251300Z 06009KT 020V090 5000 BR FEW003 BKN005 16/15 Q1001 BECMG 04007KT TEMPO 4000 BR
RJAA 251230Z 06008KT 010V090 5000 BR FEW003 BKN005 BKN012 16/15 Q1001 BECMG 04007KT TEMPO 4000 BR
RJAA 251200Z 06007KT 5000 BR FEW003 BKN005 BKN012 16/15 Q1001 BECMG 04007KT TEMPO 4000 BR RMK 1ST003 6ST005 7CU012 A2958
RJAA 251130Z 06007KT 020V090 7000 BR FEW003 BKN005 BKN012 16/15 Q1001 BECMG 04007KT
RJAA 251117Z 06008KT 7000 FEW003 SCT005 BKN012 16/15 Q1001 RMK 1ST003 3ST005 7CU012 A2957
RJAA 251100Z 05005KT 360V110 7000 FEW003 BKN005 BKN013 17/16 Q1001 NOSIG RMK 1ST003 5ST005 7CU013 A2956
RJAA 251030Z 06004KT 020V110 8000 FEW004 BKN013 BKN020 17/16 Q1000 BECMG 04006KT
RJAA 251016Z 06005KT 020V100 8000 FEW005 BKN013 BKN020 17/16 Q1000 RMK 1ST005 5CU013 6CU020 A2953
RJAA 251000Z 04008KT 9999 FEW005 SCT012 BKN015 18/17 Q1000 BECMG FEW005 BKN012
RJAA 250930Z 33002KT 9999 FEW006 SCT012 BKN015 20/18 Q0999 BECMG FEW005 BKN012
RJAA 250900Z VRB02KT 9999 FEW012 BKN015 20/18 Q0999 BECMG 04008KT FEW005 BKN012 RMK 2CU012 7CU015 A2951
RJAA 250830Z 26003KT 220V310 9999 FEW008 SCT012 BKN015 21/18 Q0998 TEMPO FEW008 BKN012
RJAA 250800Z 24005KT 200V270 9999 FEW010 BKN015 BKN020 21/19 Q0998 BECMG 26005KT RMK 1ST010 5CU015 7CU020 A2948
RJAA 250730Z 25005KT 210V310 9999 FEW009 SCT012 BKN015 21/19 Q0998 NOSIG RMK 1ST009 3CU012 7CU015 A2947
RJAA 250700Z 25004KT 210V310 9999 FEW009 SCT012 BKN015 21/19 Q0997 NOSIG RMK 1ST009 3CU012 7CU015 A2947
RJAA 250630Z 25006KT 220V300 9999 FEW006 SCT009 BKN012 20/19 Q0997 TEMPO FEW005 BKN008
RJAA 250600Z 25007KT 220V290 9999 FEW004 BKN010 BKN012 20/18 Q0997 TEMPO FEW005 BKN008
RJAA 250530Z 25008KT 210V280 9000 FEW004 BKN007 BKN010 19/19 Q0997 WS R16L NOSIG
RJAA 250500Z 25007KT 210V280 7000 -SHRA FEW003 SCT005 BKN007 19/19 Q0997 WS R16L NOSIG
RJAA 250430Z 25010G20KT 210V280 4000 R16R/P2000N R16L/P2000N -SHRA BR FEW003 SCT005 BKN006 19/19 Q0997 NOSIG
RJAA 250400Z 23012G25KT 180V270 3500 R16R/P2000N R16L/P2000N SHRA BR FEW003 BKN006 BKN010 21/20 Q0997 BECMG 26012KT
RJAA 250330Z 21012KT 170V240 2800 R16R/P2000N R16L/1500VP2000N -SHRA BR FEW005 BKN008 BKN012 20/20 Q0997 TEMPO 22020G32KT
RJAA 250300Z 20014KT 170V230 2400 R16R/P2000N R16L/1800D -SHRA BR FEW003 BKN007 BKN010 20/19 Q0997 TEMPO 22018G30KT
RJAA 250230Z 17010KT 1800 R16R/1800U R16L/1800N SHRA BR FEW003 BKN007 BKN012 19/19 Q0998 TEMPO 21018G30KT
RJAA 250205Z 17012KT 140V210 2000 R16R/2000N R16L/1900D +SHRA BR FEW003 BKN007 BKN012 19/19 Q0999 RMK 1ST003 6ST007 7CU012 A2951 P/FR
RJAA 250200Z 18012KT 150V220 2400 R16R/P2000N R16L/2000N +SHRA BR FEW003 BKN007 BKN012 19/19 Q0999 TEMPO 18018G30KT
RJAA 250143Z 17012KT 4000 SHRA BR FEW003 BKN007 BKN012 19/19 Q1000 RMK 1ST003 6ST007 7CU012 A2954
RJAA 250130Z 17014KT 3000 SHRA BR FEW003 BKN007 BKN012 19/19 Q1000 TEMPO 18018G30KT
RJAA 250116Z 16015KT 2400 R16R/P2000N R16L/P2000N SHRA BR FEW003 BKN007 BKN010 19/19 Q1000 RMK 1ST003 6ST007 7CU010 A2955 P/FR
RJAA 250100Z 17013KT 2000 R16R/1400VP2000D R16L/2000N +SHRA BR FEW003 BKN007 BKN013 19/18 Q1001 TEMPO 18015G25KT RMK 1ST003 6ST007 7CU013 A2958 P/FR
RJAA 250030Z 15010KT 3500 SHRA BR FEW003 BKN007 BKN013 19/18 Q1002 TEMPO 18015G25KT 3000 SHRA BR
RJAA 250000Z 16009KT 140V210 4000 SHRA BR FEW005 BKN008 BKN015 19/18 Q1003 TEMPO 18015G25KT
RJAA 242330Z 17011KT 150V210 4500 SHRA BR FEW005 BKN008 BKN015 19/18 Q1003 NOSIG RMK 1ST005 5ST008 6CU015 A2964
RJAA 242300Z 17009KT 4500 SHRA BR FEW005 BKN008 BKN025 19/18 Q1004 NOSIG
RJAA 242241Z 17009KT 4500 SHRA BR FEW005 SCT008 BKN050 18/18 Q1004 RMK 1ST005 3ST008 6SC050 A2966
RJAA 242230Z 17009KT 5000 -SHRA BR FEW005 SCT008 BKN060 18/18 Q1004 TEMPO 4000 SHRA BR FEW005 BKN008
RJAA 242215Z 18008KT 150V210 6000 -SHRA FEW005 SCT008 BKN040 18/18 Q1004 RMK 1ST005 3ST008 6SC040 A2967
RJAA 242200Z 18008KT 140V210 6000 SHRA FEW006 SCT020 BKN060 18/18 Q1004 TEMPO 4000 SHRA BR FEW005 BKN008
RJAA 242130Z 17010KT 150V210 6000 SHRA FEW005 SCT020 BKN060 18/18 Q1004 TEMPO 4000 SHRA BR FEW005 BKN008
RJAA 242125Z 17010KT 150V210 7000 SHRA FEW010 SCT020 BKN060 18/18 Q1004 RMK 1ST010 3CU020 5SC060 A2967
RJAA 242100Z 18010KT 8000 -SHRA FEW010 SCT020 BKN060 18/18 Q1004 TEMPO 4000 SHRA BR FEW005 BKN008
RJAA 242038Z 18010KT 7000 -SHRA FEW015 SCT040 BKN060 18/17 Q1005 RMK 1CU015 3CU040 6SC060 A2968
RJAA 242030Z 18010KT 6000 SHRA FEW015 SCT030 BKN060 18/17 Q1005 TEMPO 4000 SHRA BR FEW005 BKN008
RJAA 242024Z 19011KT 5000 SHRA BR FEW015 SCT040 BKN060 18/17 Q1005 RMK 1CU015 3CU040 7SC060 A2968
RJAA 242014Z 19011KT 150V220 5000 -SHRA BR FEW015 SCT025 BKN060 18/17 Q1005 RMK 1CU015 3CU025 7SC060 A2968
RJAA 242003Z 19010KT 160V220 4500 SHRA BR FEW015 SCT040 BKN060 18/17 Q1004 RMK 1CU015 4CU040 7SC060 A2967
RJAA 242000Z 19010KT 160V220 6000 -SHRA FEW015 SCT040 BKN060 19/17 Q1004 TEMPO 4000 SHRA BR FEW005 BKN008 RMK 1CU015 4CU040 7SC060 A2967
RJAA 241930Z 18011KT 140V210 9999 FEW020 SCT040 BKN060 19/17 Q1004 TEMPO 4000 SHRA BR FEW005 BKN008
RJAA 241900Z 18009KT 9999 -RA FEW020 BKN060 18/17 Q1005 NOSIG RMK 1CU020 7SC060 A2968
RJAA 241830Z 17007KT 9999 -RA FEW020 BKN060 18/17 Q1005 NOSIG RMK 1CU020 7SC060 A2969
RJAA 241800Z 19009KT 160V220 9999 -RA FEW020 BKN050 18/17 Q1005 NOSIG RMK 1CU020 7SC050 A2970
RJAA 241730Z 17008KT 9999 -RA FEW020 BKN050 18/17 Q1006 NOSIG RMK 1CU020 7SC050 A2971
RJAA 241700Z 17009KT 9999 FEW025 BKN050 18/17 Q1006 NOSIG RMK 1CU025 7SC050 A2972
RJAA 241630Z 17008KT 9999 -RA FEW025 BKN060 18/17 Q1006 NOSIG RMK 1CU025 7SC060 A2973
RJAA 241600Z 17008KT 9999 -RA FEW025 BKN050 18/17 Q1007 NOSIG RMK 1CU025 7SC050 A2974
RJAA 241530Z 17007KT 8000 -RA FEW025 BKN050 18/17 Q1008 NOSIG RMK 1CU025 7SC050 A2977
RJAA 241500Z 18005KT 8000 -RA FEW025 BKN050 18/17 Q1008 NOSIG RMK 1CU025 7SC050 A2979
RJAA 241430Z 17007KT 150V220 8000 -RA FEW020 BKN050 18/17 Q1009 NOSIG RMK 2CU020 7SC050 A2980
RJAA 241400Z 15006KT 9999 -RA FEW020 BKN050 17/17 Q1009 NOSIG RMK 1CU020 7SC050 A2980
RJAA 241330Z 15006KT 9999 -RA FEW020 BKN050 17/17 Q1009 NOSIG RMK 1CU020 7SC050 A2982
RJAA 241300Z 17004KT 9999 -SHRA FEW015 SCT040 BKN070 17/17 Q1010 NOSIG RMK 1CU015 3CU040 7AC070 A2983
RJAA 241230Z 23003KT 190V270 7000 -SHRA FEW010 BKN040 BKN080 17/17 Q1010 NOSIG RMK 1ST010 5CU040 7AC080 A2985
RJAA 241219Z 18004KT 150V210 7000 -SHRA FEW010 SCT020 BKN040 17/17 Q1011 RMK 1ST010 3CU020 5CU040 A2985
RJAA 241200Z 25005KT 140V290 7000 SHRA FEW010 SCT020 BKN040 17/17 Q1011 BECMG 18006KT
RJAA 241145Z 16002KT 6000 SHRA FEW015 BKN040 17/16 Q1011 RMK 1CU015 7CU040 A2986
RJAA 241130Z 16003KT 8000 -SHRA FEW025 SCT040 BKN050 17/16 Q1011 NOSIG RMK 1CU025 3CU040 7SC050 A2987
RJAA 241100Z 18005KT 9000 -SHRA FEW025 SCT045 BKN060 17/16 Q1011 NOSIG RMK 1CU025 3CU045 6SC060 A2987 MOD TURB OBS AT 1055Z 20NM SE NARITA 7000FT IN CMB B77W AAL60
RJAA 241030Z 17006KT 9999 -SHRA FEW025 SCT045 BKN060 18/16 Q1011 NOSIG RMK 1CU025 3CU045 6SC060 A2986 MOD TURB OBS AT 1009Z BINKS 8000FT A320 VNL106
RJAA 241000Z 17005KT 9999 -SHRA FEW025 SCT045 BKN060 18/16 Q1010 NOSIG RMK 1CU025 3CU045 6SC060 A2985
RJAA 240930Z 16005KT 9999 -SHRA FEW030 BKN060 BKN080 17/16 Q1010 NOSIG RMK 2CU030 5SC060 7AC080 A2984
RJAA 240900Z 18004KT 9999 -SHRA FEW030 BKN090 18/16 Q1010 NOSIG RMK 2CU030 7AC090 A2984
RJAA 240830Z 18004KT 9999 -SHRA FEW020 BKN090 18/16 Q1010 NOSIG RMK 1CU020 7AC090 A2984
RJAA 240800Z 18006KT 9999 -SHRA FEW020 BKN100 19/15 Q1010 NOSIG RMK 2CU020 7AC100 A2984
RJAA 240730Z 19007KT 9999 -SHRA FEW020 BKN100 19/15 Q1010 NOSIG RMK 2CU020 7AC100 A2985
RJAA 240700Z 20010KT 9999 -SHRA FEW015 SCT030 BKN110 20/14 Q1011 NOSIG RMK 1CU015 3CU030 7AC110 A2986
RJAA 240630Z 22012KT 9999 -SHRA FEW015 SCT030 BKN110 21/14 Q1011 NOSIG RMK 1CU015 4CU030 7AC110 A2987
RJAA 240600Z 21011KT 170V240 9999 -SHRA FEW015 SCT040 BKN120 21/13 Q1011 NOSIG RMK 1CU015 3CU040 7AC120 A2987
RJAA 240530Z 21010KT 170V240 9999 FEW015 BKN120 22/14 Q1011 NOSIG RMK 1CU015 7AC120 A2987
RJAA 240500Z 21009KT 160V240 9999 FEW015 BKN035 22/14 Q1012 NOSIG RMK 2CU015 7CU035 A2989
RJAA 240430Z 20010KT 170V230 9999 FEW015 BKN030 BKN070 22/14 Q1012 NOSIG RMK 1CU015 5CU030 7AC070 A2990
RJAA 240400Z 20008KT 160V230 9999 FEW015 SCT030 BKN070 22/15 Q1013 NOSIG RMK 1CU015 4CU030 7AC070 A2991
RJAA 240330Z 19009KT 160V240 9999 FEW015 SCT030 BKN160 21/15 Q1013 NOSIG RMK 1CU015 4CU030 7AC160 A2992
RJAA 240300Z 18008KT 140V210 9999 FEW015 SCT030 BKN040 21/16 Q1013 NOSIG RMK 1CU015 3CU030 7SC040 A2994
RJAA 240230Z 17009KT 130V210 9999 FEW015 BKN040 21/17 Q1014 NOSIG RMK 1CU015 7SC040 A2995
RJAA 240200Z 15011KT 9999 FEW015 BKN030 BKN/// 20/16 Q1014 NOSIG
RJAA 240130Z 16009KT 9999 FEW015 SCT040 BKN/// 21/15 Q1015 NOSIG
RJAA 240100Z 16009KT 130V190 9999 FEW015 SCT040 BKN160 21/16 Q1015 NOSIG RMK 1CU015 3SC040 6AC160 A3000
RJAA 240030Z 20011KT 160V230 9999 FEW015 BKN170 21/15 Q1016 NOSIG RMK 1CU015 5AC170 A3001
RJAA 240000Z 17007KT 130V210 9999 FEW008 BKN170 19/15 Q1016 NOSIG RMK 1ST008 5AC170 A3002
RJAA 232330Z 13007KT 8000 FEW008 BKN170 19/16 Q1017 NOSIG RMK 1ST008 6AC170 A3003
RJAA 232300Z 15005KT 100V190 8000 FEW008 BKN070 BKN170 17/15 Q1017 NOSIG RMK 2ST008 5AC070 6AC170 A3005
RJAA 232230Z 14004KT 110V170 6000 BR FEW006 BKN007 16/15 Q1017 NOSIG RMK 1ST006 7ST007 A3005 BR NE
RJAA 232200Z 12005KT 4500 BR FEW006 BKN007 16/14 Q1017 BECMG TL2300 5000 NSW FEW006 BKN012 RMK 1ST006 7ST007 A3005
RJAA 232130Z 11004KT 070V140 5000 BR FEW006 BKN008 15/14 Q1017 TEMPO 4000 BR
RJAA 232100Z 07003KT 040V120 5000 BR FEW007 BKN009 14/13 Q1017 BECMG FEW008 BKN012 RMK 1ST007 7ST009 A3005
RJAA 232030Z 08005KT 5000 BR FEW008 BKN009 14/13 Q1017 NOSIG RMK 1ST008 7ST009 A3006
RJAA 232000Z 09006KT 5000 BR BKN009 14/13 Q1018 NOSIG RMK 7ST009 A3006
RJAA 231930Z 06004KT 6000 -RA FEW009 BKN012 14/13 Q1018 BECMG 08005KT
RJAA 231900Z 05005KT 030V090 5000 BR FEW005 BKN012 BKN020 14/13 Q1018 BECMG 08005KT TEMPO 4000 BR RMK 1ST005 6SC012 7SC020 A3007
RJAA 231830Z 12004KT 5000 BR FEW005 BKN010 BKN020 14/13 Q1018 TEMPO 4000 BR
RJAA 231800Z 09003KT 5000 BR FEW005 SCT010 BKN025 14/13 Q1018 TEMPO 4000 BR
RJAA 231730Z 07004KT 5000 BR FEW005 BKN009 14/13 Q1018 TEMPO 4000 BR RMK 1ST005 7ST009 A3008
RJAA 231700Z 07004KT 030V110 5000 BR FEW006 BKN008 14/13 Q1019 TEMPO 4000 BR RMK 1ST006 7ST008 A3009
RJAA 231630Z 09003KT 060V130 5000 BR FEW005 BKN007 14/13 Q1019 TEMPO 4000 BR
RJAA 231600Z 08004KT 6000 FEW005 BKN007 14/13 Q1019 NOSIG RMK 1ST005 7ST007 A3011
RJAA 231530Z 04006KT 6000 FEW005 BKN006 14/13 Q1019 TEMPO 4000 BR FEW004 BKN005
RJAA 231500Z 04006KT 6000 BKN005 14/13 Q1020 TEMPO 4000 BR RMK 7ST005 A3013